Time;durP1;ratioP1;P1;durP2;ratioP2;P2;SDS_P1;SDS_P2;PMS_P1;PMS_P2;Temp;Humidity;BMP_temperature;BMP_pressure;BME280_temperature;BME280_humidity;BME280_pressure;Samples;Min_cycle;Max_cycle;Signal;HPM_P1;HPM_P2
2022/05/13 00:01:26;;;;;;;0.60;0.60;;;24.20;37.40;;;26.05;31.28;101592.72;5054688;28;20202;-53
2022/05/13 00:03:53;;;;;;;0.50;0.50;;;24.20;38.10;;;26.07;31.14;101595.97;5043079;28;20222;-55
2022/05/13 00:06:21;;;;;;;0.60;0.60;;;24.20;37.50;;;26.07;31.62;101590.56;5049116;28;20655;-53
2022/05/13 00:08:48;;;;;;;0.60;0.60;;;24.20;37.50;;;26.04;31.42;101591.06;5053862;28;20551;-54
2022/05/13 00:11:16;;;;;;;0.50;0.50;;;24.20;37.50;;;26.05;31.65;101587.31;5053859;28;20553;-54
2022/05/13 00:13:43;;;;;;;0.60;0.60;;;24.20;37.50;;;26.05;31.60;101592.72;5054187;28;20217;-55
2022/05/13 00:16:12;;;;;;;0.67;0.67;;;24.20;37.50;;;26.05;31.34;101592.72;5054089;28;20213;-53
2022/05/13 00:18:41;;;;;;;0.60;0.60;;;24.20;37.50;;;26.03;31.84;101592.97;5054388;28;20196;-53
2022/05/13 00:21:08;;;;;;;0.50;0.50;;;24.20;37.50;;;26.05;31.70;101587.31;5041063;28;20194;-54
2022/05/13 00:23:36;;;;;;;0.50;0.50;;;24.20;37.60;;;26.06;31.32;101580.84;5053774;28;20535;-53
2022/05/13 00:26:03;;;;;;;0.60;0.60;;;24.20;38.20;;;26.05;31.94;101581.94;5033716;28;20222;-54
2022/05/13 00:28:30;;;;;;;0.50;0.50;;;24.20;37.60;;;26.06;31.98;101583.53;5034220;28;20195;-54
2022/05/13 00:30:59;;;;;;;0.50;0.50;;;24.20;37.60;;;26.04;31.69;101585.69;5035896;28;20194;-55
2022/05/13 00:33:27;;;;;;;0.53;0.53;;;24.20;37.60;;;26.05;31.41;101576.53;5054093;28;20189;-53
2022/05/13 00:35:55;;;;;;;0.50;0.50;;;24.20;37.60;;;26.03;31.74;101574.06;5043779;28;20228;-53
2022/05/13 00:38:23;;;;;;;0.50;0.50;;;24.20;37.60;;;26.04;31.86;101569.50;5047861;28;20194;-54
2022/05/13 00:40:50;;;;;;;0.50;0.50;;;24.20;37.60;;;26.03;31.49;101567.88;5053615;28;20530;-53
2022/05/13 00:43:44;;;;;;;0.60;0.60;;;24.20;37.70;;;25.98;31.45;101567.81;5052635;28;20190;-53
2022/05/13 00:46:12;;;;;;;0.40;0.40;;;24.20;37.70;;;26.04;31.53;101573.00;5053779;28;20226;-53
2022/05/13 00:48:40;;;;;;;0.43;0.43;;;24.20;37.70;;;26.03;31.71;101562.47;5036237;28;20232;-53
2022/05/13 00:51:12;;;;;;;0.60;0.60;;;24.20;37.70;;;26.04;31.51;101566.78;5046280;28;20208;-53
2022/05/13 00:53:40;;;;;;;0.50;0.50;;;24.20;37.70;;;26.05;31.48;101565.72;5052379;28;20662;-53
2022/05/13 00:56:07;;;;;;;0.40;0.40;;;24.20;37.70;;;26.04;32.08;101564.09;5053180;28;20218;-55
2022/05/13 00:58:40;;;;;;;0.50;0.50;;;24.20;37.70;;;26.03;32.10;101557.09;5053608;28;20196;-54
2022/05/13 01:01:08;;;;;;;0.60;0.60;;;24.20;37.70;;;26.03;31.65;101557.09;5053531;28;20634;-54
2022/05/13 01:03:37;;;;;;;0.60;0.60;;;24.20;37.70;;;26.01;31.50;101551.09;5053646;28;20643;-55
2022/05/13 01:06:13;;;;;;;0.60;0.60;;;24.20;37.70;;;26.02;31.93;101558.13;5053384;28;20225;-53
2022/05/13 01:08:40;;;;;;;0.50;0.50;;;24.20;37.70;;;26.03;32.07;101562.47;5052917;28;20196;-54
2022/05/13 01:11:15;;;;;;;0.50;0.50;;;24.20;37.70;;;26.00;31.45;101555.72;5043489;28;20194;-54
2022/05/13 01:13:50;;;;;;;0.50;0.50;;;24.20;37.70;;;26.01;31.89;101554.63;5033678;28;20257;-54
2022/05/13 01:16:18;;;;;;;0.50;0.50;;;24.20;37.70;;;26.01;31.90;101548.41;5039617;28;20217;-56
2022/05/13 01:18:45;;;;;;;0.50;0.50;;;24.20;37.70;;;26.03;31.37;101551.69;5045644;28;20736;-55
2022/05/13 01:21:21;;;;;;;0.50;0.50;;;24.20;37.70;;;26.00;31.36;101546.78;5053405;28;20249;-55
2022/05/13 01:23:52;;;;;;;0.40;0.40;;;24.20;37.60;;;26.02;31.98;101555.44;5053322;28;20554;-54
2022/05/13 01:26:25;;;;;;;0.50;0.50;;;24.20;37.60;;;26.02;31.92;101560.84;5052856;28;20666;-55
2022/05/13 01:28:56;;;;;;;0.50;0.50;;;24.20;37.60;;;26.02;31.41;101544.66;5040999;28;20194;-56
2022/05/13 01:31:27;;;;;;;0.40;0.40;;;24.20;37.60;;;25.99;31.21;101545.97;5047859;28;20206;-56
2022/05/13 01:33:54;;;;;;;0.50;0.50;;;24.10;37.50;;;26.01;31.57;101543.00;5033431;28;20198;-56
2022/05/13 01:36:22;;;;;;;0.60;0.60;;;24.10;37.50;;;26.01;31.50;101548.41;5033304;28;20236;-54
2022/05/13 01:38:51;;;;;;;0.67;0.67;;;24.10;37.50;;;26.00;31.18;101549.50;5038346;28;20197;-56
2022/05/13 01:41:19;;;;;;;0.50;0.50;;;24.20;37.60;;;26.00;31.70;101542.22;5053310;28;20190;-56
2022/05/13 01:43:49;;;;;;;0.83;0.40;;;24.20;37.60;;;26.00;31.92;101544.09;5044612;28;20566;-55
2022/05/13 01:46:18;;;;;;;0.50;0.50;;;24.10;37.50;;;26.00;31.83;101541.41;5048823;28;20716;-56
2022/05/13 01:48:47;;;;;;;0.50;0.50;;;24.10;37.50;;;26.00;31.94;101538.69;5053063;28;20247;-56
2022/05/13 01:51:15;;;;;;;0.43;0.43;;;24.10;37.50;;;26.00;31.41;101536.81;5052915;28;20198;-55
2022/05/13 01:53:43;;;;;;;0.40;0.40;;;24.10;37.50;;;26.01;31.29;101537.59;5053327;28;20304;-56
2022/05/13 01:56:12;;;;;;;0.50;0.50;;;24.10;37.50;;;25.99;31.33;101537.06;5047459;28;20237;-56
2022/05/13 01:58:39;;;;;;;0.50;0.50;;;24.10;37.50;;;25.99;31.77;101534.34;5039050;28;20194;-58
2022/05/13 02:01:09;;;;;;;0.40;0.40;;;24.10;37.50;;;25.98;31.45;101533.53;5040932;28;20191;-58
2022/05/13 02:03:46;;;;;;;0.53;0.53;;;24.10;37.50;;;25.98;31.92;101530.03;5040043;28;20190;-56
2022/05/13 02:06:18;;;;;;;0.40;0.40;;;24.10;37.40;;;25.97;31.81;101536.50;5039604;28;20225;-57
2022/05/13 02:08:46;;;;;;;0.50;0.50;;;24.10;37.40;;;25.98;31.88;101536.22;5039773;28;20586;-58
2022/05/13 02:11:19;;;;;;;0.47;0.47;;;24.10;37.40;;;25.98;31.58;101527.34;5049484;28;20216;-55
2022/05/13 02:13:49;;;;;;;0.50;0.50;;;24.10;37.40;;;25.98;31.76;101532.75;5055700;28;20677;-58
2022/05/13 02:16:17;;;;;;;0.50;0.50;;;24.10;37.40;;;25.99;31.81;101534.34;5041659;28;20564;-57
2022/05/13 02:18:45;;;;;;;0.70;0.70;;;24.10;37.40;;;25.97;31.94;101531.94;5058276;28;20197;-56
2022/05/13 02:21:13;;;;;;;0.53;0.53;;;24.10;37.40;;;25.97;31.85;101526.53;5062974;28;20201;-56
2022/05/13 02:23:41;;;;;;;0.53;0.53;;;24.10;37.40;;;25.97;31.72;101528.41;5062869;28;20202;-55
2022/05/13 02:26:13;;;;;;;0.57;0.57;;;24.10;37.40;;;25.98;31.82;101527.34;5065791;28;20222;-66
2022/05/13 02:28:42;;;;;;;0.50;0.50;;;24.10;37.40;;;25.96;31.17;101518.69;5067490;28;20227;-62
2022/05/13 02:31:10;;;;;;;0.50;0.50;;;24.10;37.30;;;25.97;31.77;101520.31;5066714;28;20258;-67
2022/05/13 02:33:38;;;;;;;0.50;0.50;;;24.10;37.30;;;25.98;31.71;101521.94;5064107;28;20186;-61
2022/05/13 02:36:07;;;;;;;0.80;0.80;;;24.10;37.90;;;25.98;31.40;101522.72;5059182;28;20222;-62
2022/05/13 02:38:35;;;;;;;0.60;0.60;;;24.10;37.30;;;25.98;30.97;101521.94;5051676;28;20194;-63
2022/05/13 02:41:12;;;;;;;0.40;0.40;;;24.10;37.30;;;25.98;31.60;101521.94;5067463;28;20194;-61
2022/05/13 02:43:44;;;;;;;0.50;0.50;;;24.10;37.20;;;25.96;31.70;101518.69;5068545;28;20654;-59
2022/05/13 02:46:13;;;;;;;0.60;0.60;;;24.10;37.20;;;25.97;31.58;101520.31;5068269;28;20214;-61
2022/05/13 02:48:41;;;;;;;0.60;0.60;;;24.10;37.20;;;25.98;31.65;101516.56;5067430;28;20225;-61
2022/05/13 02:51:12;;;;;;;0.50;0.50;;;24.10;37.20;;;25.96;31.68;101524.09;5066978;28;20610;-62
2022/05/13 02:53:39;;;;;;;0.50;0.50;;;24.10;37.20;;;25.96;30.95;101510.59;5051245;28;20199;-58
2022/05/13 02:56:09;;;;;;;0.50;0.50;;;24.10;37.20;;;25.94;31.36;101500.03;5068409;28;20226;-62
2022/05/13 02:58:41;;;;;;;0.43;0.43;;;24.10;37.10;;;25.94;31.10;101504.63;5068300;28;20194;-58
2022/05/13 03:01:13;;;;;;;0.60;0.60;;;24.10;37.10;;;25.95;31.51;101500.88;5068478;28;20274;-67
2022/05/13 03:03:44;;;;;;;0.40;0.40;;;24.10;37.10;;;25.96;31.39;101499.81;5056057;28;20205;-59
2022/05/13 03:06:12;;;;;;;0.77;0.77;;;24.10;37.10;;;25.95;31.44;101490.06;5047240;28;20216;-64
2022/05/13 03:08:43;;;;;;;0.50;0.50;;;24.10;37.10;;;25.96;31.30;101486.31;5048032;28;20191;-62
2022/05/13 03:11:11;;;;;;;0.40;0.40;;;24.10;37.10;;;25.95;30.86;101477.41;5067136;28;20198;-62
2022/05/13 03:13:38;;;;;;;0.40;0.40;;;24.10;37.10;;;25.95;31.46;101479.28;5066956;28;20200;-53
2022/05/13 03:16:15;;;;;;;0.53;0.53;;;24.10;37.00;;;25.92;31.10;101475.22;5054957;28;20219;-54
2022/05/13 03:18:46;;;;;;;0.47;0.47;;;24.10;37.00;;;25.93;31.08;101476.84;5055424;28;20727;-53
2022/05/13 03:21:25;;;;;;;0.47;0.47;;;24.10;37.60;;;25.92;31.36;101469.00;5055732;28;20190;-54
2022/05/13 03:23:54;;;;;;;0.60;0.60;;;24.10;37.00;;;25.92;31.59;101474.38;5045557;28;20663;-53
2022/05/13 03:26:22;;;;;;;0.50;0.50;;;24.10;37.00;;;25.93;31.43;101474.16;5034870;28;20206;-55
2022/05/13 03:28:49;;;;;;;0.47;0.47;;;24.10;37.00;;;25.91;31.15;101472.78;5049256;28;20201;-53
2022/05/13 03:31:24;;;;;;;0.43;0.43;;;24.10;36.90;;;25.90;31.28;101471.13;5040475;28;20208;-54
2022/05/13 03:33:51;;;;;;;0.50;0.50;;;24.00;36.90;;;25.91;31.34;101461.97;5035456;28;20686;-53
2022/05/13 03:36:19;;;;;;;0.57;0.57;;;24.00;36.80;;;25.93;31.26;101460.66;5043130;28;20228;-54
2022/05/13 03:38:46;;;;;;;0.60;0.60;;;24.10;36.90;;;25.91;31.01;101451.97;5055167;28;20206;-53
2022/05/13 03:41:14;;;;;;;0.50;0.50;;;24.00;36.80;;;25.91;30.99;101464.69;5039855;28;20226;-56
2022/05/13 03:43:41;;;;;;;0.40;0.40;;;24.00;36.80;;;25.92;30.65;101458.19;5048274;28;20197;-53
2022/05/13 03:46:08;;;;;;;0.77;0.77;;;24.00;36.80;;;25.91;31.32;101456.59;5052997;28;20232;-53
2022/05/13 03:48:37;;;;;;;0.50;0.50;;;24.00;36.80;;;25.91;31.06;101451.19;5052690;28;20646;-52
2022/05/13 03:51:05;;;;;;;0.40;0.40;;;24.00;36.70;;;25.93;31.28;101449.03;5034798;28;20274;-53
2022/05/13 03:53:32;;;;;;;0.50;0.50;;;24.00;36.70;;;25.92;31.19;101442.81;5035799;28;20681;-53
2022/05/13 03:56:00;;;;;;;0.43;0.43;;;24.00;36.70;;;25.92;30.63;101436.59;5054025;28;20218;-53
2022/05/13 03:58:27;;;;;;;0.50;0.50;;;24.00;36.70;;;25.90;30.88;101423.38;5034656;28;20225;-53
2022/05/13 04:00:55;;;;;;;0.50;0.50;;;24.00;36.70;;;25.90;30.77;101428.78;5035462;28;20190;-54
2022/05/13 04:03:23;;;;;;;0.40;0.40;;;24.00;36.60;;;25.92;31.06;101425.81;5034666;28;20194;-54
2022/05/13 04:08:59;;;;;;;0.50;0.50;;;24.10;36.70;;;25.89;31.37;101418.22;5034096;28;20205;-53
2022/05/13 04:11:31;;;;;;;0.40;0.40;;;24.00;36.60;;;25.87;31.18;101428.47;5035101;28;20669;-54
2022/05/13 04:16:45;;;;;;;0.43;0.43;;;24.00;36.60;;;25.86;30.64;101426.88;5038909;28;20228;-53
2022/05/13 04:19:13;;;;;;;0.40;0.40;;;24.00;36.60;;;25.89;30.73;101426.31;5054287;28;20186;-53
2022/05/13 04:21:42;;;;;;;0.40;0.40;;;24.00;36.50;;;25.87;31.14;101432.00;5054381;28;20190;-54
2022/05/13 04:24:17;;;;;;;0.40;0.40;;;24.00;36.50;;;25.85;30.66;101444.09;5053814;28;20281;-53
2022/05/13 04:26:47;;;;;;;0.47;0.47;;;24.00;36.40;;;25.89;30.53;101431.72;5053921;28;20208;-53
2022/05/13 04:29:15;;;;;;;0.50;0.50;;;24.00;36.50;;;25.88;31.11;101446.31;5044259;28;20198;-53
2022/05/13 04:31:45;;;;;;;0.33;0.33;;;24.00;36.50;;;25.90;31.06;101449.56;5041136;28;20197;-53
2022/05/13 04:34:13;;;;;;;0.50;0.50;;;24.00;36.50;;;25.87;30.76;101450.88;5035890;28;20218;-53
2022/05/13 04:36:41;;;;;;;0.50;0.50;;;24.00;36.40;;;25.88;30.64;101451.69;5035803;28;20222;-53
2022/05/13 04:39:09;;;;;;;0.47;0.47;;;24.00;36.40;;;25.88;30.75;101449.00;5053881;28;20198;-55
2022/05/13 04:44:22;;;;;;;0.40;0.40;;;24.00;36.40;;;25.86;31.21;101445.75;5053337;28;20208;-53
2022/05/13 04:46:49;;;;;;;0.50;0.50;;;24.00;36.40;;;25.88;30.56;101457.09;5053661;28;20214;-54
2022/05/13 04:49:16;;;;;;;0.47;0.47;;;24.00;36.30;;;25.88;30.48;101457.09;5053826;28;20241;-52
2022/05/13 04:51:45;;;;;;;0.40;0.40;;;24.00;36.30;;;25.88;30.40;101465.19;5053403;28;20196;-54
2022/05/13 04:54:12;;;;;;;0.50;0.50;;;24.00;36.30;;;25.88;30.39;101467.88;5053977;28;20659;-56
2022/05/13 04:56:40;;;;;;;0.60;0.60;;;24.00;36.40;;;25.88;31.19;101479.50;5052493;28;20217;-53
2022/05/13 04:59:07;;;;;;;0.30;0.30;;;24.00;36.30;;;25.88;30.51;101473.28;5036499;28;20533;-54
2022/05/13 05:01:34;;;;;;;0.53;0.53;;;24.00;36.30;;;25.87;30.39;101483.25;5050326;28;20197;-52
2022/05/13 05:04:03;;;;;;;0.60;0.50;;;24.00;36.20;;;25.87;30.42;101493.22;5053109;28;20186;-56
2022/05/13 05:06:30;;;;;;;0.50;0.50;;;24.00;36.20;;;25.87;30.32;101493.22;5053148;28;20206;-53
2022/05/13 05:09:01;;;;;;;0.50;0.50;;;24.00;36.20;;;25.86;31.01;101489.75;5052834;28;20198;-55
2022/05/13 05:11:30;;;;;;;0.40;0.40;;;24.00;36.20;;;25.88;30.48;101489.47;5052365;28;20631;-56
2022/05/13 05:13:58;;;;;;;0.30;0.30;;;24.00;36.20;;;25.88;31.07;101494.88;5052386;28;20186;-53
2022/05/13 05:16:25;;;;;;;0.50;0.50;;;24.00;36.20;;;25.87;30.85;101488.66;5035350;28;20226;-53
2022/05/13 05:18:53;;;;;;;0.40;0.40;;;24.00;36.20;;;25.87;30.29;101494.06;5053150;28;20662;-53
2022/05/13 05:21:20;;;;;;;0.53;0.53;;;24.00;36.20;;;25.87;30.32;101493.22;5053394;28;20190;-54
2022/05/13 05:23:49;;;;;;;0.63;0.43;;;24.00;36.20;;;25.88;30.32;101501.09;5053407;28;20200;-53
2022/05/13 05:26:18;;;;;;;0.43;0.43;;;24.00;36.20;;;25.88;30.73;101519.16;5038100;28;20253;-56
2022/05/13 05:28:46;;;;;;;0.50;0.50;;;24.00;36.10;;;25.88;30.40;101505.66;5044917;28;20204;-56
2022/05/13 05:31:13;;;;;;;0.40;0.40;;;24.00;36.10;;;25.88;30.33;101516.47;5047861;28;20193;-55
2022/05/13 05:33:42;;;;;;;0.40;0.40;;;24.00;36.10;;;25.88;30.42;101505.66;5033365;28;20204;-56
2022/05/13 05:36:10;;;;;;;0.40;0.40;;;24.00;36.10;;;25.89;30.21;101509.97;5032556;28;20662;-56
2022/05/13 05:38:40;;;;;;;0.50;0.50;;;24.00;36.10;;;25.88;30.10;101494.88;5035927;28;20232;-55
2022/05/13 05:41:07;;;;;;;0.43;0.43;;;24.00;36.10;;;25.88;30.77;101497.56;5033029;28;20647;-55
2022/05/13 05:43:36;;;;;;;0.50;0.50;;;24.00;36.10;;;25.87;30.12;101499.44;5043528;28;20196;-55
2022/05/13 05:46:04;;;;;;;0.40;0.40;;;24.00;36.10;;;25.88;30.85;101516.47;5056815;28;20284;-55
2022/05/13 05:48:32;;;;;;;0.50;0.50;;;24.00;36.10;;;25.88;30.86;101511.06;5055835;28;20194;-56
2022/05/13 05:50:59;;;;;;;0.50;0.50;;;24.00;36.10;;;25.87;30.30;101504.84;5057043;28;20196;-55
2022/05/13 05:59:08;;;;;;;0.30;0.30;;;24.00;36.00;;;25.86;30.37;101502.41;5036719;28;20265;-56
2022/05/13 06:01:35;;;;;;;0.50;0.50;;;24.00;36.10;;;25.85;30.88;101507.00;5036806;28;20195;-56
2022/05/13 06:04:05;;;;;;;0.33;0.33;;;24.00;36.10;;;25.84;30.13;101502.66;5051973;28;20187;-54
2022/05/13 06:06:32;;;;;;;0.37;0.30;;;24.00;36.00;;;25.85;30.34;101495.38;5056516;28;20228;-56
2022/05/13 06:09:01;;;;;;;0.47;0.47;;;24.00;36.10;;;25.87;30.32;101506.72;5040175;28;20194;-55
2022/05/13 06:11:29;;;;;;;0.40;0.40;;;24.00;36.00;;;25.86;30.13;101502.41;5036486;28;20206;-56
2022/05/13 06:13:58;;;;;;;0.40;0.40;;;24.00;36.00;;;25.86;30.60;101510.50;5036578;28;20197;-55
2022/05/13 06:16:28;;;;;;;0.47;0.47;;;24.00;36.00;;;25.86;30.13;101514.03;5038279;28;20218;-55
2022/05/13 06:19:00;;;;;;;0.40;0.40;;;24.00;36.00;;;25.86;30.16;101518.59;5051054;28;20578;-54
2022/05/13 06:21:29;;;;;;;0.53;0.53;;;24.00;36.60;;;25.86;30.25;101524.00;5037253;28;20273;-56
2022/05/13 06:23:56;;;;;;;0.50;0.50;;;24.00;36.00;;;25.87;30.45;101525.59;5036481;28;20217;-55
2022/05/13 06:26:24;;;;;;;0.40;0.40;;;24.00;36.00;;;25.86;30.81;101514.03;5055413;28;20221;-54
2022/05/13 06:28:52;;;;;;;0.50;0.50;;;24.00;36.00;;;25.86;30.67;101513.22;5043062;28;20562;-56
2022/05/13 06:31:20;;;;;;;0.50;0.50;;;24.00;36.00;;;25.87;30.81;101514.81;5036091;28;20194;-56
2022/05/13 06:33:49;;;;;;;0.50;0.50;;;24.00;36.00;;;25.86;30.28;101511.31;5036719;28;20552;-56
2022/05/13 06:36:16;;;;;;;0.40;0.40;;;24.00;36.00;;;25.87;30.72;101515.63;5046202;28;20666;-56
2022/05/13 06:38:44;;;;;;;0.50;0.50;;;24.00;36.00;;;25.86;30.71;101518.59;5049073;28;20281;-54
2022/05/13 06:41:11;;;;;;;0.50;0.50;;;24.00;36.00;;;25.87;30.12;101514.81;5035050;28;20191;-56
2022/05/13 06:43:38;;;;;;;0.30;0.30;;;24.00;36.00;;;25.86;30.18;101507.81;5044852;28;20194;-53
2022/05/13 06:46:05;;;;;;;0.30;0.30;;;24.00;36.00;;;25.85;30.21;101522.34;5054335;28;20213;-56
2022/05/13 06:48:37;;;;;;;1.20;0.43;;;24.00;36.00;;;25.84;30.31;101526.16;5055108;28;20196;-56
2022/05/13 06:51:06;;;;;;;0.40;0.40;;;24.00;36.00;;;25.85;30.85;101516.97;5045108;28;20204;-54
2022/05/13 06:53:33;;;;;;;0.50;0.50;;;24.00;36.00;;;25.86;30.84;101518.59;5054790;28;20196;-56
2022/05/13 06:56:01;;;;;;;0.40;0.40;;;24.00;36.00;;;25.86;30.20;101521.31;5042400;28;20567;-52
2022/05/13 06:58:28;;;;;;;0.67;0.67;;;24.00;36.00;;;25.86;30.31;101529.41;5053223;28;20712;-54
2022/05/13 07:00:56;;;;;;;0.40;0.40;;;24.00;36.00;;;25.86;30.25;101524.81;5047961;28;20265;-54
2022/05/13 07:03:23;;;;;;;0.60;0.60;;;24.00;36.00;;;25.85;30.14;101522.34;5044522;28;20206;-56
2022/05/13 07:05:50;;;;;;;0.47;0.47;;;24.00;36.00;;;25.86;30.75;101529.41;5053244;28;20569;-55
2022/05/13 07:08:32;;;;;;;0.73;0.50;;;24.00;36.10;;;25.86;30.29;101534.78;5046889;28;20233;-55
2022/05/13 07:10:59;;;;;;;0.50;0.50;;;24.00;36.10;;;25.86;30.49;101534.78;5049235;28;20225;-56
2022/05/13 07:13:26;;;;;;;7.43;0.67;;;24.00;36.20;;;25.89;30.86;101536.97;5049113;28;20278;-56
2022/05/13 07:15:54;;;;;;;0.60;0.53;;;24.00;36.20;;;25.89;30.29;101534.25;5054177;28;20214;-55
2022/05/13 07:18:21;;;;;;;1.53;0.63;;;24.00;36.30;;;25.90;30.62;101535.91;5045450;28;20217;-56
2022/05/13 07:20:48;;;;;;;1.37;0.40;;;24.00;36.40;;;25.90;30.73;101541.28;5043481;28;20202;-55
2022/05/13 07:23:16;;;;;;;1.03;0.60;;;24.00;36.40;;;25.92;30.62;101542.66;5034202;28;20300;-54
2022/05/13 07:25:47;;;;;;;0.60;0.60;;;24.00;36.50;;;25.92;31.31;101548.06;5036050;28;20221;-57
2022/05/13 07:28:15;;;;;;;1.03;0.60;;;24.00;36.60;;;25.91;30.72;101549.13;5042972;28;20194;-56
2022/05/13 07:30:42;;;;;;;1.77;0.50;;;24.00;36.60;;;25.94;30.73;101547.81;5033825;28;20194;-55
2022/05/13 07:33:09;;;;;;;0.47;0.47;;;24.10;36.70;;;25.95;31.18;101560.22;5049541;28;20206;-53
2022/05/13 07:35:36;;;;;;;0.50;0.50;;;24.10;36.80;;;25.96;31.03;101561.88;5001371;28;1117532;-52
2022/05/13 07:38:06;;;;;;;0.90;0.67;;;24.10;36.80;;;25.98;30.60;101562.44;5047226;28;20212;-54
2022/05/13 07:43:22;;;;;;;1.40;0.70;;;24.10;36.70;;;25.96;31.34;101562.66;5038573;28;20691;-53
2022/05/13 07:45:49;;;;;;;1.20;0.80;;;24.10;36.70;;;25.98;30.85;101565.13;5038637;28;20221;-55
2022/05/13 07:48:17;;;;;;;0.87;0.77;;;24.10;36.80;;;26.00;31.37;101565.69;5037422;28;20273;-52
2022/05/13 07:50:44;;;;;;;1.63;0.83;;;24.10;36.70;;;25.99;31.27;101569.44;5037302;28;20202;-52
2022/05/13 07:53:11;;;;;;;1.37;0.80;;;24.20;36.80;;;26.01;31.21;101564.59;5038015;28;20198;-50
2022/05/13 07:55:39;;;;;;;1.07;0.97;;;24.10;36.80;;;26.02;31.39;101571.63;5037842;28;20217;-53
2022/05/13 07:58:06;;;;;;;18.43;2.30;;;24.10;36.80;;;26.20;30.51;101564.00;5038483;28;20199;-41
2022/05/13 08:00:36;;;;;;;6.23;1.20;;;24.10;36.80;;;26.26;31.09;101558.63;5038317;28;20255;-41
2022/05/13 08:03:06;;;;;;;0.70;0.70;;;24.10;36.90;;;26.28;30.68;101560.00;5038819;28;20712;-42
2022/05/13 08:05:40;;;;;;;1.77;0.90;;;24.10;37.00;;;26.32;30.79;101558.41;5039213;28;20233;-42
2022/05/13 08:08:11;;;;;;;0.77;0.70;;;24.00;37.00;;;26.36;30.29;101556.84;5040413;28;20225;-43
2022/05/13 08:10:43;;;;;;;0.70;0.70;;;24.00;37.10;;;26.39;30.23;101553.59;5039371;28;20206;-43
2022/05/13 08:13:14;;;;;;;1.10;0.73;;;24.00;37.20;;;26.41;30.70;101556.84;5035981;28;20198;-44
2022/05/13 08:15:44;;;;;;;1.10;0.57;;;24.00;37.20;;;26.44;30.17;101572.53;5038700;28;20320;-50
2022/05/13 08:18:13;;;;;;;2.07;0.90;;;24.00;37.30;;;26.46;30.34;101561.50;5038838;28;20703;-49
2022/05/13 08:20:42;;;;;;;0.60;0.60;;;23.90;37.30;;;26.48;30.26;101553.94;5038781;28;20320;-44
2022/05/13 08:23:09;;;;;;;1.60;0.87;;;24.00;37.40;;;26.50;30.36;101558.03;5035667;28;20202;-47
2022/05/13 08:25:37;;;;;;;3.27;0.67;;;24.00;37.50;;;26.51;30.14;101554.22;5037829;28;20231;-44
2022/05/13 08:28:06;;;;;;;1.03;0.60;;;23.90;37.50;;;26.53;30.57;101568.28;5039187;28;20214;-44
2022/05/13 08:30:34;;;;;;;1.50;0.90;;;24.00;37.50;;;26.55;30.74;101571.56;5038430;28;20229;-43
2022/05/13 08:33:08;;;;;;;1.00;0.70;;;24.00;37.60;;;26.54;30.41;101567.22;5037235;28;20220;-45
2022/05/13 08:35:37;;;;;;;0.60;0.60;;;24.00;37.60;;;26.56;30.88;101570.47;5039527;28;20220;-44
2022/05/13 08:38:06;;;;;;;0.90;0.77;;;24.00;37.60;;;26.59;30.44;101577.25;5050255;28;20234;-44
2022/05/13 08:41:01;;;;;;;1.00;0.90;;;24.00;37.60;;;26.51;30.74;101583.13;5037340;28;20207;-43
2022/05/13 08:43:35;;;;;;;1.80;0.83;;;24.00;37.70;;;26.57;30.82;101579.41;5044334;28;20194;-43
2022/05/13 08:46:18;;;;;;;0.87;0.73;;;24.00;37.70;;;26.53;30.87;101589.91;5051840;28;20324;-47
2022/05/13 08:48:54;;;;;;;0.77;0.70;;;24.00;37.70;;;26.56;30.30;101578.59;5049694;28;20578;-43
2022/05/13 08:51:36;;;;;;;1.50;0.63;;;24.00;37.70;;;26.56;30.68;101581.28;5051302;28;20291;-44
2022/05/13 08:54:14;;;;;;;2.50;0.80;;;24.00;37.70;;;26.57;30.47;101574.81;5043592;28;20766;-44
2022/05/13 08:56:46;;;;;;;4.87;0.70;;;24.00;37.70;;;26.62;30.68;101577.56;5038086;28;20230;-44
2022/05/13 08:59:21;;;;;;;2.57;1.07;;;24.00;37.80;;;26.61;30.60;101575.09;5034715;28;20206;-45
2022/05/13 09:01:54;;;;;;;2.13;0.87;;;24.00;37.70;;;26.62;30.38;101566.75;5040519;28;20196;-43
2022/05/13 09:04:36;;;;;;;5.13;1.30;;;24.10;37.80;;;26.56;30.84;101567.78;5053458;28;20289;-44
2022/05/13 09:07:16;;;;;;;1.37;0.90;;;24.10;37.80;;;26.59;30.36;101578.06;5048619;28;20218;-43
2022/05/13 09:09:47;;;;;;;1.53;0.83;;;24.10;37.80;;;26.66;30.29;101569.72;5032389;28;20208;-45
2022/05/13 09:12:26;;;;;;;3.43;1.03;;;24.10;37.90;;;26.65;31.00;101570.78;5036027;28;20205;-45
2022/05/13 09:15:02;;;;;;;0.90;0.90;;;24.10;37.90;;;26.68;30.86;101573.81;5036023;28;20204;-45
2022/05/13 09:17:35;;;;;;;0.70;0.67;;;24.10;38.00;;;26.69;30.91;101572.75;5036170;28;20229;-45
2022/05/13 09:20:10;;;;;;;3.53;1.10;;;24.10;38.00;;;26.69;31.07;101571.91;5033500;28;20257;-44
2022/05/13 09:22:45;;;;;;;3.67;1.00;;;24.10;38.00;;;26.71;30.92;101581.41;5032751;28;20197;-47
2022/05/13 09:25:24;;;;;;;1.27;1.00;;;24.10;38.10;;;26.67;30.56;101569.47;5035650;28;20193;-43
2022/05/13 09:28:00;;;;;;;1.00;0.90;;;24.20;38.20;;;26.70;30.60;101579.75;5038467;28;20385;-43
2022/05/13 09:30:37;;;;;;;1.23;0.97;;;24.10;38.10;;;26.71;31.20;101576.00;5039081;28;20201;-43
2022/05/13 09:33:20;;;;;;;3.67;1.10;;;24.20;38.10;;;26.68;30.56;101575.69;5044853;28;20597;-42
2022/05/13 09:35:52;;;;;;;3.03;1.07;;;24.20;38.20;;;26.77;30.81;101580.38;5045002;28;20230;-45
2022/05/13 09:38:26;;;;;;;2.20;0.73;;;24.20;38.10;;;26.79;30.72;101572.03;5042083;28;20728;-44
2022/05/13 09:41:04;;;;;;;2.37;1.13;;;24.20;38.00;;;26.77;31.02;101569.56;5034009;28;20194;-45
2022/05/13 09:43:38;;;;;;;1.20;0.87;;;24.20;38.00;;;26.79;30.42;101564.69;5048572;28;20201;-44
2022/05/13 09:46:24;;;;;;;1.93;1.00;;;24.20;38.00;;;26.77;30.45;101569.56;5037477;28;20252;-44
2022/05/13 09:48:59;;;;;;;2.23;1.20;;;24.30;38.10;;;26.80;30.44;101565.53;5045028;28;20325;-44
2022/05/13 09:51:35;;;;;;;4.43;1.27;;;24.20;38.00;;;26.79;31.15;101578.22;5033677;28;20664;-47
2022/05/13 09:54:15;;;;;;;1.47;1.10;;;24.20;38.00;;;26.78;30.39;101575.78;5034924;28;20207;-52
2022/05/13 09:56:47;;;;;;;6.53;1.23;;;24.30;38.10;;;26.83;30.83;101579.34;5028108;28;20315;-50
2022/05/13 09:59:22;;;;;;;1.00;0.90;;;24.30;38.20;;;26.83;31.17;101582.03;5034460;28;20217;-50
2022/05/13 10:01:53;;;;;;;1.70;0.97;;;24.30;38.10;;;26.85;30.81;101573.66;5027320;28;20257;-44
2022/05/13 10:04:24;;;;;;;0.93;0.87;;;24.30;38.20;;;26.86;30.92;101575.31;5031395;28;20614;-48
2022/05/13 10:07:05;;;;;;;13.70;1.10;;;24.30;38.20;;;26.79;31.17;101578.22;5034221;28;20701;-45
2022/05/13 10:15:28;;;;;;;3.47;1.10;;;24.30;38.20;;;26.81;31.01;101592.28;5030150;28;20253;-43
2022/05/13 10:18:10;;;;;;;1.03;0.80;;;24.30;38.20;;;26.81;31.20;101592.28;5035797;28;20222;-45
2022/05/13 10:20:41;;;;;;;2.83;1.30;;;24.30;38.20;;;26.84;31.08;101594.47;5036895;28;20209;-46
2022/05/13 10:23:23;;;;;;;1.50;1.10;;;24.30;38.20;;;26.81;31.09;101592.28;5032263;28;20233;-46
2022/05/13 10:25:58;;;;;;;4.53;1.10;;;24.30;38.20;;;26.85;31.21;101595.28;5034578;28;20217;-46
2022/05/13 10:28:35;;;;;;;3.03;0.90;;;24.30;38.30;;;26.83;30.53;101595.56;5034032;28;20197;-44
2022/05/13 10:31:15;;;;;;;1.77;1.30;;;24.30;38.20;;;26.85;31.22;101598.81;5037314;28;20225;-44
2022/05/13 10:34:01;;;;;;;1.73;1.40;;;24.30;38.20;;;26.81;30.58;101603.09;5037919;28;20206;-49
2022/05/13 10:36:49;;;;;;;2.27;1.17;;;24.30;38.20;;;26.82;30.70;101610.13;5032843;28;20225;-45
2022/05/13 10:39:27;;;;;;;2.43;1.13;;;24.30;38.10;;;26.88;30.84;101613.69;5036909;28;20206;-43
2022/05/13 10:42:02;;;;;;;1.40;1.17;;;24.30;38.20;;;26.90;30.60;101616.13;5031842;28;20223;-44
2022/05/13 10:44:45;;;;;;;1.90;1.20;;;24.30;38.80;;;26.86;30.67;101622.03;5032787;28;20604;-44
2022/05/13 10:47:20;;;;;;;2.07;1.60;;;24.30;38.20;;;26.88;31.44;101608.28;5032112;28;20308;-44
2022/05/13 10:49:48;;;;;;;2.20;1.00;;;24.40;38.30;;;26.93;31.15;101616.44;5029227;28;20194;-43